sensor_id;sensor_type;location;lat;lon;timestamp;P1;durP1;ratioP1;P2;durP2;ratioP2
35743;SDS011;21867;52.012;4.324;2023-04-03T00:00:05;3.93;;;2.33;;
35743;SDS011;21867;52.012;4.324;2023-04-03T00:02:33;3.87;;;2.80;;
35743;SDS011;21867;52.012;4.324;2023-04-03T00:05:00;2.77;;;2.53;;
35743;SDS011;21867;52.012;4.324;2023-04-03T00:07:28;2.57;;;2.30;;
35743;SDS011;21867;52.012;4.324;2023-04-03T00:09:56;2.57;;;2.30;;
35743;SDS011;21867;52.012;4.324;2023-04-03T00:12:23;2.97;;;2.33;;
35743;SDS011;21867;52.012;4.324;2023-04-03T00:18:41;2.00;;;1.83;;
35743;SDS011;21867;52.012;4.324;2023-04-03T00:21:09;2.73;;;2.53;;
35743;SDS011;21867;52.012;4.324;2023-04-03T00:23:37;2.90;;;2.50;;
35743;SDS011;21867;52.012;4.324;2023-04-03T00:26:05;2.53;;;2.33;;
35743;SDS011;21867;52.012;4.324;2023-04-03T00:28:32;2.50;;;2.30;;
35743;SDS011;21867;52.012;4.324;2023-04-03T00:31:00;2.47;;;2.10;;
35743;SDS011;21867;52.012;4.324;2023-04-03T00:33:27;3.63;;;2.40;;
35743;SDS011;21867;52.012;4.324;2023-04-03T00:35:55;2.67;;;2.47;;
35743;SDS011;21867;52.012;4.324;2023-04-03T00:38:22;2.77;;;2.50;;
35743;SDS011;21867;52.012;4.324;2023-04-03T00:40:50;3.50;;;2.30;;
35743;SDS011;21867;52.012;4.324;2023-04-03T00:43:20;2.87;;;2.03;;
35743;SDS011;21867;52.012;4.324;2023-04-03T00:45:48;2.53;;;2.33;;
35743;SDS011;21867;52.012;4.324;2023-04-03T00:48:29;3.50;;;2.10;;
35743;SDS011;21867;52.012;4.324;2023-04-03T00:50:58;4.37;;;2.63;;
35743;SDS011;21867;52.012;4.324;2023-04-03T00:53:27;3.00;;;2.37;;
35743;SDS011;21867;52.012;4.324;2023-04-03T00:55:54;2.83;;;2.63;;
35743;SDS011;21867;52.012;4.324;2023-04-03T00:58:35;3.90;;;2.87;;
35743;SDS011;21867;52.012;4.324;2023-04-03T01:04:24;4.63;;;2.43;;
35743;SDS011;21867;52.012;4.324;2023-04-03T01:06:54;6.07;;;2.60;;
35743;SDS011;21867;52.012;4.324;2023-04-03T01:09:22;2.40;;;2.20;;
35743;SDS011;21867;52.012;4.324;2023-04-03T01:11:49;2.30;;;2.10;;
35743;SDS011;21867;52.012;4.324;2023-04-03T01:14:18;2.63;;;2.43;;
35743;SDS011;21867;52.012;4.324;2023-04-03T01:16:51;3.63;;;2.57;;
35743;SDS011;21867;52.012;4.324;2023-04-03T01:19:28;2.53;;;2.10;;
35743;SDS011;21867;52.012;4.324;2023-04-03T01:22:03;3.07;;;2.77;;
35743;SDS011;21867;52.012;4.324;2023-04-03T01:24:35;3.03;;;2.50;;
35743;SDS011;21867;52.012;4.324;2023-04-03T01:27:06;2.60;;;2.40;;
35743;SDS011;21867;52.012;4.324;2023-04-03T01:33:21;2.73;;;2.53;;
35743;SDS011;21867;52.012;4.324;2023-04-03T01:35:48;3.37;;;2.63;;
35743;SDS011;21867;52.012;4.324;2023-04-03T01:38:16;3.70;;;2.80;;
35743;SDS011;21867;52.012;4.324;2023-04-03T01:40:43;3.00;;;2.70;;
35743;SDS011;21867;52.012;4.324;2023-04-03T01:43:11;2.47;;;2.20;;
35743;SDS011;21867;52.012;4.324;2023-04-03T01:45:38;3.13;;;2.50;;
35743;SDS011;21867;52.012;4.324;2023-04-03T01:48:06;2.80;;;2.50;;
35743;SDS011;21867;52.012;4.324;2023-04-03T01:50:34;2.67;;;2.47;;
35743;SDS011;21867;52.012;4.324;2023-04-03T01:53:02;3.17;;;2.37;;
35743;SDS011;21867;52.012;4.324;2023-04-03T01:55:30;4.57;;;2.40;;
35743;SDS011;21867;52.012;4.324;2023-04-03T01:57:57;2.70;;;2.50;;
35743;SDS011;21867;52.012;4.324;2023-04-03T02:00:25;2.50;;;2.30;;
35743;SDS011;21867;52.012;4.324;2023-04-03T02:05:36;2.20;;;2.07;;
35743;SDS011;21867;52.012;4.324;2023-04-03T02:08:04;3.13;;;2.50;;
35743;SDS011;21867;52.012;4.324;2023-04-03T02:10:31;2.40;;;2.20;;
35743;SDS011;21867;52.012;4.324;2023-04-03T02:20:09;3.70;;;2.70;;
35743;SDS011;21867;52.012;4.324;2023-04-03T02:22:38;2.83;;;2.50;;
35743;SDS011;21867;52.012;4.324;2023-04-03T02:25:06;3.47;;;2.43;;
35743;SDS011;21867;52.012;4.324;2023-04-03T02:27:33;2.57;;;2.37;;
35743;SDS011;21867;52.012;4.324;2023-04-03T02:30:00;2.37;;;2.13;;
35743;SDS011;21867;52.012;4.324;2023-04-03T02:32:44;2.50;;;2.30;;
35743;SDS011;21867;52.012;4.324;2023-04-03T02:35:12;3.67;;;2.30;;
35743;SDS011;21867;52.012;4.324;2023-04-03T02:37:41;3.87;;;2.47;;
35743;SDS011;21867;52.012;4.324;2023-04-03T02:40:09;3.77;;;2.70;;
35743;SDS011;21867;52.012;4.324;2023-04-03T02:49:41;2.50;;;2.30;;
35743;SDS011;21867;52.012;4.324;2023-04-03T02:52:09;1.97;;;1.80;;
35743;SDS011;21867;52.012;4.324;2023-04-03T02:54:38;2.53;;;2.20;;
35743;SDS011;21867;52.012;4.324;2023-04-03T02:57:07;4.00;;;2.80;;
35743;SDS011;21867;52.012;4.324;2023-04-03T02:59:35;3.87;;;2.40;;
35743;SDS011;21867;52.012;4.324;2023-04-03T03:04:52;2.40;;;2.20;;
35743;SDS011;21867;52.012;4.324;2023-04-03T03:07:19;4.63;;;2.50;;
35743;SDS011;21867;52.012;4.324;2023-04-03T03:09:48;2.20;;;2.10;;
35743;SDS011;21867;52.012;4.324;2023-04-03T03:19:03;3.50;;;2.37;;
35743;SDS011;21867;52.012;4.324;2023-04-03T03:21:30;2.07;;;1.93;;
35743;SDS011;21867;52.012;4.324;2023-04-03T03:23:58;2.20;;;2.00;;
35743;SDS011;21867;52.012;4.324;2023-04-03T03:26:27;3.30;;;2.37;;
35743;SDS011;21867;52.012;4.324;2023-04-03T03:28:55;4.23;;;3.07;;
35743;SDS011;21867;52.012;4.324;2023-04-03T03:34:09;4.63;;;2.43;;
35743;SDS011;21867;52.012;4.324;2023-04-03T03:36:37;2.77;;;2.57;;
35743;SDS011;21867;52.012;4.324;2023-04-03T03:39:04;3.60;;;2.60;;
35743;SDS011;21867;52.012;4.324;2023-04-03T03:41:44;3.37;;;3.07;;
35743;SDS011;21867;52.012;4.324;2023-04-03T03:48:02;3.63;;;2.10;;
35743;SDS011;21867;52.012;4.324;2023-04-03T03:50:30;3.50;;;2.33;;
35743;SDS011;21867;52.012;4.324;2023-04-03T03:52:58;2.50;;;2.30;;
35743;SDS011;21867;52.012;4.324;2023-04-03T03:55:25;2.80;;;2.33;;
35743;SDS011;21867;52.012;4.324;2023-04-03T03:57:57;2.83;;;2.23;;
35743;SDS011;21867;52.012;4.324;2023-04-03T04:00:26;5.13;;;2.70;;
35743;SDS011;21867;52.012;4.324;2023-04-03T04:02:55;4.00;;;2.43;;
35743;SDS011;21867;52.012;4.324;2023-04-03T04:05:25;3.33;;;2.00;;
35743;SDS011;21867;52.012;4.324;2023-04-03T04:07:53;2.47;;;2.27;;
35743;SDS011;21867;52.012;4.324;2023-04-03T04:10:21;3.20;;;2.90;;
35743;SDS011;21867;52.012;4.324;2023-04-03T04:16:49;9.37;;;2.53;;
35743;SDS011;21867;52.012;4.324;2023-04-03T04:19:22;2.30;;;2.03;;
35743;SDS011;21867;52.012;4.324;2023-04-03T04:21:49;7.03;;;2.73;;
35743;SDS011;21867;52.012;4.324;2023-04-03T04:24:17;4.10;;;2.70;;
35743;SDS011;21867;52.012;4.324;2023-04-03T04:26:47;3.20;;;2.23;;
35743;SDS011;21867;52.012;4.324;2023-04-03T04:29:16;2.67;;;2.47;;
35743;SDS011;21867;52.012;4.324;2023-04-03T04:31:48;5.53;;;2.27;;
35743;SDS011;21867;52.012;4.324;2023-04-03T04:34:16;5.87;;;2.67;;
35743;SDS011;21867;52.012;4.324;2023-04-03T04:36:43;6.00;;;3.00;;
35743;SDS011;21867;52.012;4.324;2023-04-03T04:39:11;3.33;;;2.60;;
35743;SDS011;21867;52.012;4.324;2023-04-03T04:45:29;2.83;;;2.40;;
35743;SDS011;21867;52.012;4.324;2023-04-03T04:47:59;4.47;;;2.50;;
35743;SDS011;21867;52.012;4.324;2023-04-03T04:50:27;3.90;;;2.93;;
35743;SDS011;21867;52.012;4.324;2023-04-03T04:52:54;5.97;;;2.90;;
35743;SDS011;21867;52.012;4.324;2023-04-03T04:55:22;3.23;;;2.83;;
35743;SDS011;21867;52.012;4.324;2023-04-03T04:57:49;3.23;;;2.53;;
35743;SDS011;21867;52.012;4.324;2023-04-03T05:00:18;2.50;;;2.30;;
35743;SDS011;21867;52.012;4.324;2023-04-03T05:02:46;4.13;;;2.67;;
35743;SDS011;21867;52.012;4.324;2023-04-03T05:05:15;3.70;;;2.93;;
35743;SDS011;21867;52.012;4.324;2023-04-03T05:07:43;2.93;;;2.60;;
35743;SDS011;21867;52.012;4.324;2023-04-03T05:10:11;3.50;;;2.63;;
35743;SDS011;21867;52.012;4.324;2023-04-03T05:12:39;2.70;;;2.50;;
35743;SDS011;21867;52.012;4.324;2023-04-03T05:15:07;5.90;;;2.87;;
35743;SDS011;21867;52.012;4.324;2023-04-03T05:17:36;4.07;;;2.70;;
35743;SDS011;21867;52.012;4.324;2023-04-03T05:20:05;5.33;;;3.07;;
35743;SDS011;21867;52.012;4.324;2023-04-03T05:22:35;3.27;;;2.33;;
35743;SDS011;21867;52.012;4.324;2023-04-03T05:25:06;5.73;;;3.00;;
35743;SDS011;21867;52.012;4.324;2023-04-03T05:27:34;5.20;;;2.50;;
35743;SDS011;21867;52.012;4.324;2023-04-03T05:30:02;5.03;;;2.90;;
35743;SDS011;21867;52.012;4.324;2023-04-03T05:32:31;5.33;;;3.23;;
35743;SDS011;21867;52.012;4.324;2023-04-03T05:35:14;3.17;;;2.90;;
35743;SDS011;21867;52.012;4.324;2023-04-03T05:37:45;5.47;;;2.60;;
35743;SDS011;21867;52.012;4.324;2023-04-03T05:40:14;3.43;;;3.03;;
35743;SDS011;21867;52.012;4.324;2023-04-03T05:42:46;5.70;;;3.10;;
35743;SDS011;21867;52.012;4.324;2023-04-03T05:45:15;4.77;;;2.90;;
35743;SDS011;21867;52.012;4.324;2023-04-03T05:47:43;2.00;;;1.80;;
35743;SDS011;21867;52.012;4.324;2023-04-03T05:50:10;6.57;;;3.03;;
35743;SDS011;21867;52.012;4.324;2023-04-03T05:52:39;2.63;;;2.43;;
35743;SDS011;21867;52.012;4.324;2023-04-03T05:55:09;5.20;;;2.80;;
35743;SDS011;21867;52.012;4.324;2023-04-03T05:57:36;2.17;;;2.07;;
35743;SDS011;21867;52.012;4.324;2023-04-03T06:00:04;2.13;;;1.97;;
35743;SDS011;21867;52.012;4.324;2023-04-03T06:02:39;2.80;;;2.60;;
35743;SDS011;21867;52.012;4.324;2023-04-03T06:05:09;3.47;;;2.77;;
35743;SDS011;21867;52.012;4.324;2023-04-03T06:07:37;5.57;;;2.63;;
35743;SDS011;21867;52.012;4.324;2023-04-03T06:10:05;4.30;;;2.70;;
35743;SDS011;21867;52.012;4.324;2023-04-03T06:12:34;2.60;;;2.40;;
35743;SDS011;21867;52.012;4.324;2023-04-03T06:17:44;5.17;;;2.80;;
35743;SDS011;21867;52.012;4.324;2023-04-03T06:20:12;3.40;;;2.93;;
35743;SDS011;21867;52.012;4.324;2023-04-03T06:22:40;3.43;;;3.10;;
35743;SDS011;21867;52.012;4.324;2023-04-03T06:25:07;3.57;;;2.97;;
35743;SDS011;21867;52.012;4.324;2023-04-03T06:27:37;3.47;;;3.17;;
35743;SDS011;21867;52.012;4.324;2023-04-03T06:30:19;4.47;;;2.93;;
35743;SDS011;21867;52.012;4.324;2023-04-03T06:38:23;3.10;;;2.80;;
35743;SDS011;21867;52.012;4.324;2023-04-03T06:40:51;4.07;;;2.70;;
35743;SDS011;21867;52.012;4.324;2023-04-03T06:43:20;3.13;;;2.37;;
35743;SDS011;21867;52.012;4.324;2023-04-03T06:45:49;2.97;;;2.43;;
35743;SDS011;21867;52.012;4.324;2023-04-03T06:48:17;5.07;;;2.97;;
35743;SDS011;21867;52.012;4.324;2023-04-03T06:50:44;6.40;;;2.73;;
35743;SDS011;21867;52.012;4.324;2023-04-03T06:53:11;3.27;;;2.83;;
35743;SDS011;21867;52.012;4.324;2023-04-03T06:55:38;6.57;;;2.70;;
35743;SDS011;21867;52.012;4.324;2023-04-03T06:58:06;6.97;;;3.30;;
35743;SDS011;21867;52.012;4.324;2023-04-03T07:00:35;4.67;;;3.03;;
35743;SDS011;21867;52.012;4.324;2023-04-03T07:03:02;5.40;;;3.10;;
35743;SDS011;21867;52.012;4.324;2023-04-03T07:12:15;3.50;;;2.50;;
35743;SDS011;21867;52.012;4.324;2023-04-03T07:14:42;5.73;;;3.20;;
35743;SDS011;21867;52.012;4.324;2023-04-03T07:17:11;2.73;;;2.53;;
35743;SDS011;21867;52.012;4.324;2023-04-03T07:19:56;3.27;;;2.60;;
35743;SDS011;21867;52.012;4.324;2023-04-03T07:22:24;3.20;;;2.60;;
35743;SDS011;21867;52.012;4.324;2023-04-03T07:24:51;4.83;;;2.70;;
35743;SDS011;21867;52.012;4.324;2023-04-03T07:27:18;3.80;;;2.40;;
35743;SDS011;21867;52.012;4.324;2023-04-03T07:29:46;4.80;;;2.93;;
35743;SDS011;21867;52.012;4.324;2023-04-03T07:32:15;5.17;;;3.03;;
35743;SDS011;21867;52.012;4.324;2023-04-03T07:34:48;3.53;;;2.70;;
35743;SDS011;21867;52.012;4.324;2023-04-03T07:37:15;6.00;;;2.63;;
35743;SDS011;21867;52.012;4.324;2023-04-03T07:39:43;4.03;;;3.07;;
35743;SDS011;21867;52.012;4.324;2023-04-03T07:42:10;4.33;;;3.20;;
35743;SDS011;21867;52.012;4.324;2023-04-03T07:44:56;5.23;;;2.60;;
35743;SDS011;21867;52.012;4.324;2023-04-03T07:53:04;2.87;;;2.33;;
35743;SDS011;21867;52.012;4.324;2023-04-03T07:55:31;5.30;;;2.20;;
35743;SDS011;21867;52.012;4.324;2023-04-03T07:58:00;3.53;;;2.10;;
35743;SDS011;21867;52.012;4.324;2023-04-03T08:00:27;3.00;;;2.40;;
35743;SDS011;21867;52.012;4.324;2023-04-03T08:02:55;9.97;;;2.60;;
35743;SDS011;21867;52.012;4.324;2023-04-03T08:08:06;3.43;;;2.80;;
35743;SDS011;21867;52.012;4.324;2023-04-03T08:10:34;2.47;;;2.27;;
35743;SDS011;21867;52.012;4.324;2023-04-03T08:13:02;2.63;;;2.40;;
35743;SDS011;21867;52.012;4.324;2023-04-03T08:22:00;4.00;;;2.70;;
35743;SDS011;21867;52.012;4.324;2023-04-03T08:24:28;4.27;;;2.20;;
35743;SDS011;21867;52.012;4.324;2023-04-03T08:26:56;3.90;;;2.37;;
35743;SDS011;21867;52.012;4.324;2023-04-03T08:29:23;2.77;;;2.43;;
35743;SDS011;21867;52.012;4.324;2023-04-03T08:31:50;3.10;;;2.17;;
35743;SDS011;21867;52.012;4.324;2023-04-03T08:34:27;7.90;;;2.63;;
35743;SDS011;21867;52.012;4.324;2023-04-03T08:36:55;2.20;;;1.90;;
35743;SDS011;21867;52.012;4.324;2023-04-03T08:39:22;2.53;;;2.33;;
35743;SDS011;21867;52.012;4.324;2023-04-03T08:41:51;2.93;;;2.07;;
35743;SDS011;21867;52.012;4.324;2023-04-03T08:50:02;2.97;;;2.10;;
35743;SDS011;21867;52.012;4.324;2023-04-03T08:52:32;2.77;;;2.43;;
35743;SDS011;21867;52.012;4.324;2023-04-03T08:55:01;5.67;;;2.30;;
35743;SDS011;21867;52.012;4.324;2023-04-03T08:57:32;3.67;;;2.73;;
35743;SDS011;21867;52.012;4.324;2023-04-03T09:00:11;2.77;;;2.33;;
35743;SDS011;21867;52.012;4.324;2023-04-03T09:02:41;5.47;;;2.43;;
35743;SDS011;21867;52.012;4.324;2023-04-03T09:05:15;7.50;;;3.30;;
35743;SDS011;21867;52.012;4.324;2023-04-03T09:07:44;5.87;;;2.80;;
35743;SDS011;21867;52.012;4.324;2023-04-03T09:10:15;3.47;;;2.50;;
35743;SDS011;21867;52.012;4.324;2023-04-03T09:12:48;2.87;;;2.33;;
35743;SDS011;21867;52.012;4.324;2023-04-03T09:15:35;2.03;;;1.90;;
35743;SDS011;21867;52.012;4.324;2023-04-03T09:21:12;3.13;;;2.20;;
35743;SDS011;21867;52.012;4.324;2023-04-03T09:23:42;2.40;;;2.10;;
35743;SDS011;21867;52.012;4.324;2023-04-03T09:26:13;3.70;;;2.30;;
35743;SDS011;21867;52.012;4.324;2023-04-03T09:28:42;5.13;;;2.10;;
35743;SDS011;21867;52.012;4.324;2023-04-03T09:31:18;3.37;;;2.10;;
35743;SDS011;21867;52.012;4.324;2023-04-03T09:33:56;2.53;;;1.80;;
35743;SDS011;21867;52.012;4.324;2023-04-03T09:39:08;3.43;;;2.23;;
35743;SDS011;21867;52.012;4.324;2023-04-03T09:41:37;4.33;;;2.20;;
35743;SDS011;21867;52.012;4.324;2023-04-03T09:53:36;2.03;;;1.83;;
35743;SDS011;21867;52.012;4.324;2023-04-03T09:56:05;2.10;;;1.90;;
35743;SDS011;21867;52.012;4.324;2023-04-03T09:58:46;1.67;;;1.57;;
35743;SDS011;21867;52.012;4.324;2023-04-03T10:01:23;1.80;;;1.70;;
35743;SDS011;21867;52.012;4.324;2023-04-03T10:06:29;2.10;;;1.83;;
35743;SDS011;21867;52.012;4.324;2023-04-03T10:09:00;1.73;;;1.63;;
35743;SDS011;21867;52.012;4.324;2023-04-03T10:11:28;2.10;;;1.90;;
35743;SDS011;21867;52.012;4.324;2023-04-03T10:19:57;2.83;;;1.70;;
35743;SDS011;21867;52.012;4.324;2023-04-03T10:22:27;2.27;;;1.73;;
35743;SDS011;21867;52.012;4.324;2023-04-03T10:25:00;1.43;;;1.33;;
35743;SDS011;21867;52.012;4.324;2023-04-03T10:27:41;4.23;;;1.73;;
35743;SDS011;21867;52.012;4.324;2023-04-03T10:30:17;3.13;;;2.00;;
35743;SDS011;21867;52.012;4.324;2023-04-03T10:35:36;1.70;;;1.53;;
35743;SDS011;21867;52.012;4.324;2023-04-03T10:38:08;3.37;;;2.00;;
35743;SDS011;21867;52.012;4.324;2023-04-03T10:40:44;2.87;;;2.00;;
35743;SDS011;21867;52.012;4.324;2023-04-03T10:53:08;2.20;;;1.80;;
35743;SDS011;21867;52.012;4.324;2023-04-03T10:55:39;3.80;;;1.87;;
35743;SDS011;21867;52.012;4.324;2023-04-03T10:58:12;2.23;;;2.00;;
35743;SDS011;21867;52.012;4.324;2023-04-03T11:00:45;5.00;;;2.20;;
35743;SDS011;21867;52.012;4.324;2023-04-03T11:06:07;2.07;;;1.80;;
35743;SDS011;21867;52.012;4.324;2023-04-03T11:08:37;1.57;;;1.47;;
35743;SDS011;21867;52.012;4.324;2023-04-03T11:11:05;4.40;;;1.90;;
35743;SDS011;21867;52.012;4.324;2023-04-03T11:19:24;3.27;;;1.77;;
35743;SDS011;21867;52.012;4.324;2023-04-03T11:21:56;1.50;;;1.40;;
35743;SDS011;21867;52.012;4.324;2023-04-03T11:24:28;1.93;;;1.57;;
35743;SDS011;21867;52.012;4.324;2023-04-03T11:26:56;2.00;;;1.53;;
35743;SDS011;21867;52.012;4.324;2023-04-03T11:29:27;3.70;;;1.43;;
35743;SDS011;21867;52.012;4.324;2023-04-03T11:32:13;2.23;;;2.00;;
35743;SDS011;21867;52.012;4.324;2023-04-03T11:34:45;1.93;;;1.70;;
35743;SDS011;21867;52.012;4.324;2023-04-03T11:37:16;3.00;;;1.57;;
35743;SDS011;21867;52.012;4.324;2023-04-03T11:39:49;2.87;;;1.77;;
35743;SDS011;21867;52.012;4.324;2023-04-03T11:50:52;1.50;;;1.40;;
35743;SDS011;21867;52.012;4.324;2023-04-03T11:53:26;1.60;;;1.50;;
35743;SDS011;21867;52.012;4.324;2023-04-03T11:55:58;1.80;;;1.70;;
35743;SDS011;21867;52.012;4.324;2023-04-03T11:58:26;2.47;;;1.70;;
35743;SDS011;21867;52.012;4.324;2023-04-03T12:01:04;2.20;;;1.57;;
35743;SDS011;21867;52.012;4.324;2023-04-03T12:04:09;1.60;;;1.50;;
35743;SDS011;21867;52.012;4.324;2023-04-03T12:16:18;3.43;;;1.50;;
35743;SDS011;21867;52.012;4.324;2023-04-03T12:18:56;2.17;;;1.00;;
35743;SDS011;21867;52.012;4.324;2023-04-03T12:21:24;1.47;;;1.30;;
35743;SDS011;21867;52.012;4.324;2023-04-03T12:24:23;1.57;;;1.40;;
35743;SDS011;21867;52.012;4.324;2023-04-03T12:27:01;1.30;;;1.20;;
35743;SDS011;21867;52.012;4.324;2023-04-03T12:29:33;1.50;;;1.40;;
35743;SDS011;21867;52.012;4.324;2023-04-03T12:32:15;1.63;;;1.53;;
35743;SDS011;21867;52.012;4.324;2023-04-03T12:34:50;1.30;;;1.17;;
35743;SDS011;21867;52.012;4.324;2023-04-03T12:37:27;1.50;;;1.40;;
35743;SDS011;21867;52.012;4.324;2023-04-03T12:40:01;1.63;;;1.50;;
35743;SDS011;21867;52.012;4.324;2023-04-03T12:49:22;1.40;;;1.30;;
35743;SDS011;21867;52.012;4.324;2023-04-03T12:51:50;1.50;;;1.40;;
35743;SDS011;21867;52.012;4.324;2023-04-03T12:54:18;2.37;;;1.37;;
35743;SDS011;21867;52.012;4.324;2023-04-03T12:56:46;2.13;;;1.53;;
35743;SDS011;21867;52.012;4.324;2023-04-03T12:59:15;1.47;;;1.37;;
35743;SDS011;21867;52.012;4.324;2023-04-03T13:04:32;1.17;;;1.07;;
35743;SDS011;21867;52.012;4.324;2023-04-03T13:06:59;1.30;;;1.20;;
35743;SDS011;21867;52.012;4.324;2023-04-03T13:09:28;4.27;;;1.47;;
35743;SDS011;21867;52.012;4.324;2023-04-03T13:15:44;2.20;;;1.53;;
35743;SDS011;21867;52.012;4.324;2023-04-03T13:18:25;1.83;;;1.50;;
35743;SDS011;21867;52.012;4.324;2023-04-03T13:20:54;3.03;;;1.83;;
35743;SDS011;21867;52.012;4.324;2023-04-03T13:23:23;3.27;;;1.83;;
35743;SDS011;21867;52.012;4.324;2023-04-03T13:25:51;2.57;;;1.53;;
35743;SDS011;21867;52.012;4.324;2023-04-03T13:28:19;1.60;;;1.50;;
35743;SDS011;21867;52.012;4.324;2023-04-03T13:31:04;1.97;;;1.80;;
35743;SDS011;21867;52.012;4.324;2023-04-03T13:33:33;2.77;;;1.63;;
35743;SDS011;21867;52.012;4.324;2023-04-03T13:36:03;3.03;;;2.07;;
35743;SDS011;21867;52.012;4.324;2023-04-03T13:38:31;1.90;;;1.60;;
35743;SDS011;21867;52.012;4.324;2023-04-03T13:47:17;3.17;;;1.83;;
35743;SDS011;21867;52.012;4.324;2023-04-03T13:49:45;2.97;;;1.67;;
35743;SDS011;21867;52.012;4.324;2023-04-03T13:52:24;6.03;;;1.77;;
35743;SDS011;21867;52.012;4.324;2023-04-03T13:54:52;2.53;;;1.67;;
35743;SDS011;21867;52.012;4.324;2023-04-03T13:57:21;1.90;;;1.80;;
35743;SDS011;21867;52.012;4.324;2023-04-03T13:59:48;2.13;;;1.63;;
35743;SDS011;21867;52.012;4.324;2023-04-03T14:02:17;2.10;;;1.73;;
35743;SDS011;21867;52.012;4.324;2023-04-03T14:04:47;2.50;;;1.70;;
35743;SDS011;21867;52.012;4.324;2023-04-03T14:07:16;1.50;;;1.40;;
35743;SDS011;21867;52.012;4.324;2023-04-03T14:09:45;3.33;;;2.17;;
35743;SDS011;21867;52.012;4.324;2023-04-03T14:12:14;2.13;;;1.90;;
35743;SDS011;21867;52.012;4.324;2023-04-03T14:15:02;1.87;;;1.67;;
35743;SDS011;21867;52.012;4.324;2023-04-03T14:17:30;2.30;;;2.10;;
35743;SDS011;21867;52.012;4.324;2023-04-03T14:19:58;2.97;;;2.13;;
35743;SDS011;21867;52.012;4.324;2023-04-03T14:22:26;2.53;;;1.70;;
35743;SDS011;21867;52.012;4.324;2023-04-03T14:24:55;2.53;;;1.73;;
35743;SDS011;21867;52.012;4.324;2023-04-03T14:27:41;3.23;;;1.70;;
35743;SDS011;21867;52.012;4.324;2023-04-03T14:33:02;2.77;;;1.90;;
35743;SDS011;21867;52.012;4.324;2023-04-03T14:38:27;1.77;;;1.60;;
35743;SDS011;21867;52.012;4.324;2023-04-03T14:40:57;1.63;;;1.50;;
35743;SDS011;21867;52.012;4.324;2023-04-03T14:43:41;2.20;;;2.00;;
35743;SDS011;21867;52.012;4.324;2023-04-03T14:46:11;2.37;;;1.90;;
35743;SDS011;21867;52.012;4.324;2023-04-03T14:48:39;3.17;;;1.60;;
35743;SDS011;21867;52.012;4.324;2023-04-03T14:51:10;3.57;;;1.67;;
35743;SDS011;21867;52.012;4.324;2023-04-03T14:53:44;4.20;;;2.20;;
35743;SDS011;21867;52.012;4.324;2023-04-03T14:56:14;1.90;;;1.80;;
35743;SDS011;21867;52.012;4.324;2023-04-03T14:58:44;2.47;;;1.90;;
35743;SDS011;21867;52.012;4.324;2023-04-03T15:01:11;1.80;;;1.70;;
35743;SDS011;21867;52.012;4.324;2023-04-03T15:03:38;3.07;;;2.00;;
35743;SDS011;21867;52.012;4.324;2023-04-03T15:06:08;2.53;;;1.80;;
35743;SDS011;21867;52.012;4.324;2023-04-03T15:08:35;2.93;;;1.67;;
35743;SDS011;21867;52.012;4.324;2023-04-03T15:11:03;2.10;;;1.90;;
35743;SDS011;21867;52.012;4.324;2023-04-03T15:13:32;1.40;;;1.40;;
35743;SDS011;21867;52.012;4.324;2023-04-03T15:19:04;2.07;;;1.83;;
35743;SDS011;21867;52.012;4.324;2023-04-03T15:21:59;2.20;;;2.07;;
35743;SDS011;21867;52.012;4.324;2023-04-03T15:24:26;1.60;;;1.50;;
35743;SDS011;21867;52.012;4.324;2023-04-03T15:26:54;6.20;;;2.10;;
35743;SDS011;21867;52.012;4.324;2023-04-03T15:29:23;2.93;;;1.67;;
35743;SDS011;21867;52.012;4.324;2023-04-03T15:31:50;2.30;;;2.00;;
35743;SDS011;21867;52.012;4.324;2023-04-03T15:34:18;2.87;;;1.70;;
35743;SDS011;21867;52.012;4.324;2023-04-03T15:36:50;2.00;;;1.67;;
35743;SDS011;21867;52.012;4.324;2023-04-03T15:39:18;3.30;;;1.90;;
35743;SDS011;21867;52.012;4.324;2023-04-03T15:41:45;2.10;;;1.77;;
35743;SDS011;21867;52.012;4.324;2023-04-03T15:44:12;2.60;;;1.80;;
35743;SDS011;21867;52.012;4.324;2023-04-03T15:49:44;3.23;;;1.97;;
35743;SDS011;21867;52.012;4.324;2023-04-03T15:52:11;2.40;;;1.93;;
35743;SDS011;21867;52.012;4.324;2023-04-03T15:54:39;2.03;;;1.60;;
35743;SDS011;21867;52.012;4.324;2023-04-03T15:57:06;3.77;;;2.10;;
35743;SDS011;21867;52.012;4.324;2023-04-03T15:59:34;1.77;;;1.67;;
35743;SDS011;21867;52.012;4.324;2023-04-03T16:02:01;2.20;;;2.00;;
35743;SDS011;21867;52.012;4.324;2023-04-03T16:04:30;2.50;;;1.90;;
35743;SDS011;21867;52.012;4.324;2023-04-03T16:07:01;3.33;;;2.00;;
35743;SDS011;21867;52.012;4.324;2023-04-03T16:09:28;3.93;;;2.17;;
35743;SDS011;21867;52.012;4.324;2023-04-03T16:11:56;2.23;;;2.00;;
35743;SDS011;21867;52.012;4.324;2023-04-03T16:14:23;2.10;;;1.97;;
35743;SDS011;21867;52.012;4.324;2023-04-03T16:16:50;2.43;;;2.23;;
35743;SDS011;21867;52.012;4.324;2023-04-03T16:19:18;2.20;;;1.73;;
35743;SDS011;21867;52.012;4.324;2023-04-03T16:21:45;1.60;;;1.50;;
35743;SDS011;21867;52.012;4.324;2023-04-03T16:24:14;1.80;;;1.70;;
35743;SDS011;21867;52.012;4.324;2023-04-03T16:26:44;2.27;;;1.60;;
35743;SDS011;21867;52.012;4.324;2023-04-03T16:29:11;2.17;;;1.93;;
35743;SDS011;21867;52.012;4.324;2023-04-03T16:31:39;2.03;;;1.83;;
35743;SDS011;21867;52.012;4.324;2023-04-03T16:34:06;2.90;;;2.70;;
35743;SDS011;21867;52.012;4.324;2023-04-03T16:36:33;4.13;;;2.03;;
35743;SDS011;21867;52.012;4.324;2023-04-03T16:39:01;3.80;;;2.17;;
35743;SDS011;21867;52.012;4.324;2023-04-03T16:41:29;4.67;;;2.10;;
35743;SDS011;21867;52.012;4.324;2023-04-03T16:43:56;2.57;;;1.83;;
35743;SDS011;21867;52.012;4.324;2023-04-03T16:46:24;2.80;;;1.90;;
35743;SDS011;21867;52.012;4.324;2023-04-03T16:48:51;2.00;;;1.90;;
35743;SDS011;21867;52.012;4.324;2023-04-03T16:51:18;2.13;;;1.67;;
35743;SDS011;21867;52.012;4.324;2023-04-03T16:53:46;2.63;;;2.07;;
35743;SDS011;21867;52.012;4.324;2023-04-03T16:56:13;5.90;;;2.03;;
35743;SDS011;21867;52.012;4.324;2023-04-03T16:58:42;2.97;;;2.17;;
35743;SDS011;21867;52.012;4.324;2023-04-03T17:01:10;2.13;;;1.83;;
35743;SDS011;21867;52.012;4.324;2023-04-03T17:03:38;2.20;;;2.10;;
35743;SDS011;21867;52.012;4.324;2023-04-03T17:06:06;1.90;;;1.80;;
35743;SDS011;21867;52.012;4.324;2023-04-03T17:08:33;2.87;;;2.30;;
35743;SDS011;21867;52.012;4.324;2023-04-03T17:11:00;2.00;;;1.70;;
35743;SDS011;21867;52.012;4.324;2023-04-03T17:13:28;2.00;;;1.90;;
35743;SDS011;21867;52.012;4.324;2023-04-03T17:15:56;3.60;;;1.83;;
35743;SDS011;21867;52.012;4.324;2023-04-03T17:18:24;2.20;;;1.90;;
35743;SDS011;21867;52.012;4.324;2023-04-03T17:20:51;3.10;;;2.10;;
35743;SDS011;21867;52.012;4.324;2023-04-03T17:23:19;3.10;;;2.73;;
35743;SDS011;21867;52.012;4.324;2023-04-03T17:25:46;2.60;;;2.17;;
35743;SDS011;21867;52.012;4.324;2023-04-03T17:28:13;1.87;;;1.30;;
35743;SDS011;21867;52.012;4.324;2023-04-03T17:30:41;4.23;;;1.77;;
35743;SDS011;21867;52.012;4.324;2023-04-03T17:33:09;3.80;;;2.23;;
35743;SDS011;21867;52.012;4.324;2023-04-03T17:35:37;3.20;;;2.03;;
35743;SDS011;21867;52.012;4.324;2023-04-03T17:38:04;2.40;;;2.00;;
35743;SDS011;21867;52.012;4.324;2023-04-03T17:40:32;5.27;;;2.00;;
35743;SDS011;21867;52.012;4.324;2023-04-03T17:42:59;3.23;;;2.20;;
35743;SDS011;21867;52.012;4.324;2023-04-03T17:45:26;5.77;;;2.83;;
35743;SDS011;21867;52.012;4.324;2023-04-03T17:47:53;3.83;;;1.90;;
35743;SDS011;21867;52.012;4.324;2023-04-03T17:50:22;5.80;;;2.00;;
35743;SDS011;21867;52.012;4.324;2023-04-03T17:52:49;4.10;;;2.20;;
35743;SDS011;21867;52.012;4.324;2023-04-03T17:55:17;4.53;;;2.47;;
35743;SDS011;21867;52.012;4.324;2023-04-03T17:57:44;2.37;;;2.17;;
35743;SDS011;21867;52.012;4.324;2023-04-03T18:00:12;3.87;;;2.40;;
35743;SDS011;21867;52.012;4.324;2023-04-03T18:02:39;3.73;;;2.37;;
35743;SDS011;21867;52.012;4.324;2023-04-03T18:05:07;2.60;;;2.13;;